^^
Meteo Knjazevac Station Historical Data
Daily Summary for February 16, 2021 Units:  English    Metric   Both
Daily Weekly Monthly Yearly Custom
  High: Low: Average:
Temperature: 36.7 °F 33.4 °F 34.7 °F
Dew Point: 34.8 °F 31.5 °F 33 °F
Humidity: 95% 91% 94%
Wind Speed: 8mph 0mph 2.9mph
Wind Gust: 14mph - -
Wind- - SSW
Pressure: 30.32 in 30.29 in -
Precipitation: 0.00 in    
Historical Graphs
 
 
Tabular Data for February 16, 2021
Time Temperature Dew Point Pressure Wind Wind Speed Wind Gust Humidity Rainfall Rate (Hourly) solar Conditions
00:00 34 °F 31.6 °F 30.32 in SSW 2 mph 4 mph 91% 0.00 in 0 W/m2
00:10 33.8 °F 31.5 °F 30.32 in SSW 1 mph 5 mph 91% 0.00 in 0 W/m2
00:20 33.8 °F 31.5 °F 30.32 in South 2 mph 5 mph 91% 0.00 in 0 W/m2
00:30 33.8 °F 31.5 °F 30.32 in SSW 3 mph 6 mph 91% 0.00 in 0 W/m2
00:40 33.8 °F 31.5 °F 30.32 in SSW 2 mph 6 mph 91% 0.00 in 0 W/m2
00:50 33.8 °F 31.5 °F 30.32 in SSW 2 mph 5 mph 91% 0.00 in 0 W/m2
01:00 33.8 °F 31.5 °F 30.32 in South 1 mph 6 mph 91% 0.00 in 0 W/m2
01:10 33.8 °F 31.5 °F 30.32 in South 2 mph 5 mph 91% 0.00 in 0 W/m2
01:20 33.8 °F 31.5 °F 30.31 in SSW 1 mph 3 mph 91% 0.00 in 0 W/m2
01:30 33.6 °F 31.8 °F 30.31 in Calm   4 mph 93% 0.00 in 0 W/m2
01:40 33.6 °F 31.8 °F 30.31 in NE 1 mph 3 mph 93% 0.00 in 0 W/m2
01:50 33.4 °F 31.6 °F 30.31 in SE 2 mph 3 mph 93% 0.00 in 0 W/m2
02:00 33.6 °F 31.8 °F 30.31 in SE 1 mph 3 mph 93% 0.00 in 0 W/m2
02:10 33.6 °F 31.8 °F 30.31 in SE 2 mph 5 mph 93% 0.00 in 0 W/m2
02:20 33.6 °F 31.8 °F 30.31 in SSE 2 mph 4 mph 93% 0.00 in 0 W/m2
02:30 33.8 °F 32.3 °F 30.31 in South 2 mph 5 mph 94% 0.00 in 0 W/m2
02:40 33.8 °F 32.3 °F 30.31 in SSW 3 mph 4 mph 94% 0.00 in 0 W/m2
02:50 34 °F 32.4 °F 30.31 in SW 2 mph 4 mph 94% 0.00 in 0 W/m2
03:00 34 °F 32.4 °F 30.30 in SSW 2 mph 4 mph 94% 0.00 in 0 W/m2
03:10 34 °F 32.5 °F 30.30 in SW 2 mph 5 mph 94% 0.00 in 0 W/m2
03:20 34.2 °F 32.6 °F 30.30 in SW 3 mph 6 mph 94% 0.00 in 0 W/m2
03:30 34.3 °F 32.8 °F 30.30 in SW 2 mph 6 mph 94% 0.00 in 0 W/m2
03:40 34.3 °F 33.1 °F 30.30 in SW 2 mph 4 mph 95% 0.00 in 0 W/m2
03:50 34.3 °F 32.8 °F 30.30 in WSW 1 mph 3 mph 94% 0.00 in 0 W/m2
04:00 34.3 °F 32.8 °F 30.30 in South 1 mph 4 mph 94% 0.00 in 0 W/m2
04:10 34.5 °F 33.2 °F 30.30 in SSW 1 mph 4 mph 95% 0.00 in 0 W/m2
04:20 34.5 °F 33.2 °F 30.30 in WSW 2 mph 3 mph 95% 0.00 in 0 W/m2
04:30 34.5 °F 33.2 °F 30.30 in WSW 2 mph 6 mph 95% 0.00 in 0 W/m2
04:40 34.7 °F 33.4 °F 30.30 in SW 3 mph 5 mph 95% 0.00 in 0 W/m2
04:50 34.7 °F 33.4 °F 30.30 in SW 6 mph 8 mph 95% 0.00 in 0 W/m2
05:00 34.9 °F 33.6 °F 30.30 in SW 3 mph 8 mph 95% 0.00 in 0 W/m2
05:10 34.9 °F 33.6 °F 30.30 in SW 2 mph 6 mph 95% 0.00 in 0 W/m2
05:20 34.9 °F 33.6 °F 30.30 in SW 2 mph 4 mph 95% 0.00 in 0 W/m2
05:30 34.9 °F 33.6 °F 30.30 in South 2 mph 4 mph 95% 0.00 in 0 W/m2
05:40 34.9 °F 33.6 °F 30.30 in SSW 2 mph 4 mph 95% 0.00 in 0 W/m2
05:50 34.9 °F 33.6 °F 30.30 in SW 2 mph 4 mph 95% 0.00 in 0 W/m2
06:00 34.9 °F 33.4 °F 30.30 in SW 3 mph 5 mph 94% 0.00 in 0 W/m2
06:10 35.1 °F 33.5 °F 30.30 in WSW 2 mph 6 mph 94% 0.00 in 0 W/m2
06:20 35.1 °F 33.5 °F 30.30 in SW 3 mph 6 mph 94% 0.00 in 0 W/m2
06:30 35.2 °F 33.7 °F 30.30 in SW 3 mph 7 mph 94% 0.00 in 0 W/m2
06:40 35.2 °F 33.7 °F 30.30 in SW 2 mph 7 mph 94% 0.00 in 0 W/m2
06:50 35.4 °F 33.9 °F 30.30 in SW 3 mph 8 mph 94% 0.00 in 0 W/m2
07:00 35.4 °F 33.9 °F 30.30 in WSW 5 mph 6 mph 94% 0.00 in 1 W/m2
07:10 35.4 °F 33.9 °F 30.30 in SW 5 mph 7 mph 94% 0.00 in 2 W/m2
07:20 35.4 °F 33.9 °F 30.30 in SW 6 mph 7 mph 94% 0.00 in 4 W/m2
07:30 35.6 °F 34 °F 30.30 in SW 5 mph 9 mph 94% 0.00 in 5 W/m2
07:40 35.6 °F 34 °F 30.30 in SW 5 mph 9 mph 94% 0.00 in 12 W/m2
07:50 35.6 °F 34.1 °F 30.29 in SW 5 mph 7 mph 94% 0.00 in 18 W/m2
08:00 35.8 °F 34.2 °F 30.30 in WSW 3 mph 6 mph 94% 0.00 in 24 W/m2
08:10 35.8 °F 34.2 °F 30.30 in SW 3 mph 7 mph 94% 0.00 in 26 W/m2
08:20 36 °F 34.4 °F 30.30 in WSW 5 mph 7 mph 94% 0.00 in 35 W/m2
08:30 36.3 °F 34.5 °F 30.30 in WSW 7 mph 12 mph 93% 0.00 in 65 W/m2
08:40 36.5 °F 34.7 °F 30.30 in WSW 6 mph 14 mph 93% 0.00 in 73 W/m2
08:50 36.7 °F 34.8 °F 30.30 in WSW 8 mph 12 mph 93% 0.00 in 82 W/m2
09:00 36.7 °F 34.8 °F 30.30 in WSW 7 mph 13 mph 93% 0.00 in 96 W/m2
Knjazevac, Serbia
Compliments of Weather Underground - 2 mb